Time;durP1;ratioP1;P1;durP2;ratioP2;P2;SDS_P1;SDS_P2;PMS_P1;PMS_P2;Temp;Humidity;BMP_temperature;BMP_pressure;BME280_temperature;BME280_humidity;BME280_pressure;Samples;Min_cycle;Max_cycle;Signal;HPM_P1;HPM_P2
2022/01/05 00:02:54;;;;;;;12.70;3.20;;;23.20;57.70;;;;;;220956;1265;24463;-55
2022/01/05 00:07:58;;;;;;;10.20;3.20;;;23.10;57.90;;;;;;220809;1265;22528;-57
2022/01/05 00:13:04;;;;;;;14.30;3.70;;;23.00;58.20;;;;;;220822;1265;23165;-55
2022/01/05 00:18:08;;;;;;;12.70;3.20;;;23.00;58.20;;;;;;220806;1265;24479;-53
2022/01/05 00:23:12;;;;;;;10.20;3.40;;;23.00;58.10;;;;;;220546;1265;22552;-58
2022/01/05 00:28:15;;;;;;;15.70;4.60;;;22.90;58.10;;;;;;220712;1265;22614;-54
2022/01/05 00:33:21;;;;;;;11.30;4.00;;;22.90;60.90;;;;;;220783;1265;23098;-55
2022/01/05 00:38:25;;;;;;;9.10;3.60;;;22.90;61.10;;;;;;221029;1265;22547;-55
2022/01/05 00:43:30;;;;;;;10.90;4.00;;;22.90;60.90;;;;;;220690;1265;24170;-55
2022/01/05 00:48:34;;;;;;;12.80;4.50;;;22.80;60.50;;;;;;220955;1265;24265;-56
2022/01/05 00:53:39;;;;;;;10.20;3.70;;;22.80;60.30;;;;;;220722;1265;23394;-55
2022/01/05 00:58:42;;;;;;;11.10;3.90;;;22.80;60.20;;;;;;220556;1265;22807;-55
2022/01/05 01:03:46;;;;;;;9.70;3.40;;;22.70;60.30;;;;;;220642;1265;22556;-53
2022/01/05 01:08:49;;;;;;;8.30;3.40;;;22.70;60.00;;;;;;220752;1265;24271;-58
2022/01/05 01:13:53;;;;;;;8.80;2.90;;;22.70;59.90;;;;;;220421;1265;22624;-53
2022/01/05 01:18:56;;;;;;;8.70;3.10;;;22.70;59.80;;;;;;220466;1265;22541;-53
2022/01/05 01:24:04;;;;;;;7.40;3.30;;;22.60;59.70;;;;;;220942;1265;25341;-54
2022/01/05 01:29:07;;;;;;;6.30;2.90;;;22.60;59.30;;;;;;220786;1265;22646;-57
2022/01/05 01:34:11;;;;;;;7.50;2.60;;;22.60;59.60;;;;;;220611;1265;22661;-56
2022/01/05 01:39:15;;;;;;;9.50;2.90;;;22.50;59.50;;;;;;220514;1265;24268;-57
2022/01/05 01:44:19;;;;;;;6.00;2.70;;;22.50;59.50;;;;;;220804;1265;22558;-55
2022/01/05 01:49:22;;;;;;;8.30;3.10;;;22.40;59.50;;;;;;220469;1265;24383;-57
2022/01/05 01:54:28;;;;;;;8.50;2.80;;;22.40;59.50;;;;;;220672;1265;22562;-53
2022/01/05 01:59:31;;;;;;;6.50;2.60;;;22.40;59.50;;;;;;220842;1265;22724;-51
2022/01/05 02:04:36;;;;;;;7.80;2.40;;;22.70;58.90;;;;;;220811;1265;22543;-56
2022/01/05 02:09:41;;;;;;;6.30;2.30;;;23.10;58.00;;;;;;220720;1265;25554;-56
2022/01/05 02:14:44;;;;;;;6.50;2.70;;;23.30;57.40;;;;;;220873;1265;24234;-53
2022/01/05 02:19:48;;;;;;;7.20;2.20;;;23.50;56.60;;;;;;220915;1265;22816;-53
2022/01/05 02:24:52;;;;;;;7.50;2.60;;;23.60;56.80;;;;;;220541;1265;22682;-57
2022/01/05 02:29:58;;;;;;;6.10;2.40;;;23.70;56.30;;;;;;220760;1265;25581;-56
2022/01/05 02:35:04;;;;;;;8.90;2.80;;;23.70;56.10;;;;;;220684;1265;22533;-52
2022/01/05 02:40:11;;;;;;;6.70;2.70;;;23.70;56.10;;;;;;220894;1265;25049;-57
2022/01/05 02:45:21;;;;;;;5.90;2.20;;;23.70;56.00;;;;;;220427;1267;25182;-54
2022/01/05 02:50:26;;;;;;;5.70;2.20;;;23.80;55.80;;;;;;220637;1267;22773;-56
2022/01/05 02:55:37;;;;;;;4.90;2.10;;;23.70;56.10;;;;;;220993;1265;22531;-54
2022/01/05 03:00:41;;;;;;;6.90;3.00;;;23.70;55.60;;;;;;220824;1265;24309;-53
2022/01/05 03:05:44;;;;;;;5.20;1.90;;;23.80;55.50;;;;;;221085;1265;24319;-55
2022/01/05 03:10:48;;;;;;;5.50;2.30;;;23.80;55.50;;;;;;220673;1265;24225;-54
2022/01/05 03:15:53;;;;;;;5.70;2.40;;;23.80;55.30;;;;;;220911;1265;24205;-59
2022/01/05 03:20:59;;;;;;;8.40;2.30;;;23.80;55.30;;;;;;220198;1267;22602;-56
2022/01/05 03:26:03;;;;;;;6.00;2.20;;;23.80;55.20;;;;;;220758;1265;22531;-55
2022/01/05 03:31:07;;;;;;;5.80;2.30;;;23.90;55.10;;;;;;221080;1265;22564;-56
2022/01/05 03:36:10;;;;;;;4.60;1.90;;;23.80;54.90;;;;;;220930;1265;22553;-55
2022/01/05 03:41:14;;;;;;;4.70;2.40;;;23.80;54.90;;;;;;220565;1264;22528;-55
2022/01/05 03:46:18;;;;;;;5.50;2.00;;;23.80;54.90;;;;;;220343;1267;22567;-56
2022/01/05 03:51:21;;;;;;;4.30;2.10;;;23.80;54.90;;;;;;220260;1267;22706;-56
2022/01/05 03:56:25;;;;;;;4.90;2.20;;;23.80;54.80;;;;;;220836;1265;22541;-55
2022/01/05 04:01:28;;;;;;;4.50;2.30;;;23.90;54.90;;;;;;220622;1267;24421;-55
2022/01/05 04:06:32;;;;;;;5.00;2.20;;;23.90;54.90;;;;;;220800;1265;22682;-56
2022/01/05 04:11:36;;;;;;;4.70;2.10;;;23.80;54.80;;;;;;220759;1265;24273;-54
2022/01/05 04:16:39;;;;;;;5.40;2.10;;;23.90;54.80;;;;;;220765;1265;22599;-56
2022/01/05 04:21:43;;;;;;;6.10;2.50;;;23.90;54.60;;;;;;220453;1265;22528;-56
2022/01/05 04:26:46;;;;;;;4.10;2.10;;;23.90;54.70;;;;;;220717;1265;22615;-56
2022/01/05 04:31:50;;;;;;;3.40;1.90;;;23.90;55.20;;;;;;220784;1265;22624;-56
2022/01/05 04:36:55;;;;;;;3.90;1.90;;;23.80;54.50;;;;;;220222;1267;22636;-56
2022/01/05 04:41:59;;;;;;;5.70;2.20;;;23.80;55.20;;;;;;220677;1265;22618;-54
2022/01/05 04:47:03;;;;;;;4.00;1.70;;;23.80;54.50;;;;;;220606;1265;22539;-54
2022/01/05 04:52:07;;;;;;;5.20;2.20;;;23.80;54.60;;;;;;220980;1265;22865;-55
2022/01/05 04:57:10;;;;;;;4.40;2.00;;;23.90;54.50;;;;;;220761;1265;26828;-56
2022/01/05 05:02:15;;;;;;;3.60;1.90;;;23.90;54.40;;;;;;220815;1265;24269;-56
2022/01/05 05:07:22;;;;;;;5.20;1.90;;;23.80;54.30;;;;;;220791;1265;22644;-58
2022/01/05 05:12:25;;;;;;;4.60;1.90;;;23.90;54.60;;;;;;220755;1265;22591;-53
2022/01/05 05:17:29;;;;;;;3.80;1.80;;;23.90;54.10;;;;;;220752;1265;25579;-56
2022/01/05 05:22:34;;;;;;;4.70;1.70;;;23.90;54.10;;;;;;220580;1265;22567;-55
2022/01/05 05:27:37;;;;;;;3.50;1.60;;;23.90;54.10;;;;;;220821;1265;24409;-54
2022/01/05 05:32:59;;;;;;;4.50;1.80;;;23.90;54.10;;;;;;220549;1265;22625;-56
2022/01/05 05:38:02;;;;;;;3.50;1.50;;;23.90;54.30;;;;;;220571;1265;22572;-55
2022/01/05 05:43:06;;;;;;;5.10;1.90;;;23.90;54.20;;;;;;220586;1265;22541;-57
2022/01/05 05:48:09;;;;;;;4.00;1.80;;;23.90;54.10;;;;;;220106;1265;22659;-56
2022/01/05 05:53:13;;;;;;;4.30;1.40;;;23.90;54.10;;;;;;219792;1265;341362;-55
2022/01/05 05:58:17;;;;;;;4.30;2.30;;;23.90;54.00;;;;;;220646;1265;24114;-55
2022/01/05 06:03:20;;;;;;;5.60;1.90;;;23.90;54.10;;;;;;220726;1265;22553;-52
2022/01/05 06:08:24;;;;;;;4.00;1.60;;;23.90;54.10;;;;;;220514;1267;23139;-58
2022/01/05 06:13:28;;;;;;;3.10;1.50;;;23.90;53.90;;;;;;220306;1267;24290;-55
2022/01/05 06:18:31;;;;;;;5.60;1.80;;;23.90;53.90;;;;;;220699;1265;27059;-55
2022/01/05 06:23:35;;;;;;;3.60;1.70;;;23.90;53.90;;;;;;220468;1267;24279;-55
2022/01/05 06:28:38;;;;;;;3.60;1.70;;;23.90;53.80;;;;;;220715;1265;24239;-55
2022/01/05 06:33:42;;;;;;;3.30;1.70;;;23.90;53.70;;;;;;220612;1265;22581;-53
2022/01/05 06:38:45;;;;;;;4.00;1.70;;;23.90;53.60;;;;;;220752;1265;22740;-55
2022/01/05 06:43:49;;;;;;;3.50;1.70;;;24.00;53.70;;;;;;220644;1265;22554;-55
2022/01/05 06:48:53;;;;;;;3.40;1.50;;;24.00;53.70;;;;;;220282;1265;25454;-55
2022/01/05 06:53:57;;;;;;;3.90;2.20;;;24.00;53.60;;;;;;220163;1267;22825;-55
2022/01/05 06:59:08;;;;;;;4.20;2.00;;;24.00;54.60;;;;;;220671;1265;24297;-54
2022/01/05 07:04:28;;;;;;;6.20;2.00;;;24.00;53.80;;;;;;220863;1265;24065;-51
2022/01/05 07:09:31;;;;;;;8.50;1.70;;;24.00;54.90;;;;;;220360;1265;22666;-55
2022/01/05 07:14:38;;;;;;;7.70;1.80;;;23.90;55.40;;;;;;220467;1265;25412;-55
2022/01/05 07:19:42;;;;;;;6.10;2.00;;;23.90;55.00;;;;;;220565;1265;22528;-55
2022/01/05 07:24:48;;;;;;;7.90;1.80;;;23.90;55.00;;;;;;220584;1265;25456;-56
2022/01/05 07:29:52;;;;;;;10.30;1.80;;;23.80;55.10;;;;;;220664;1265;24540;-57
2022/01/05 07:35:07;;;;;;;4.90;1.70;;;23.60;54.80;;;;;;220482;1265;25495;-54
2022/01/05 07:40:13;;;;;;;17.30;2.30;;;23.60;54.90;;;;;;220743;1265;22744;-54
2022/01/05 07:45:17;;;;;;;4.20;2.10;;;23.50;55.60;;;;;;220862;1265;27524;-53
2022/01/05 07:50:20;;;;;;;9.80;1.90;;;23.40;55.30;;;;;;220232;1265;23183;-52
2022/01/05 07:55:30;;;;;;;6.30;2.30;;;23.40;55.30;;;;;;220535;1268;22629;-55
2022/01/05 08:01:06;;;;;;;;;;;23.30;55.40;;;;;;220265;1268;23079;-54
2022/01/05 08:06:35;;;;;;;7.20;2.30;;;23.20;54.70;;;;;;220506;1268;23075;-53
2022/01/05 08:12:14;;;;;;;9.40;2.90;;;23.10;55.00;;;;;;220721;1265;25322;-56
2022/01/05 08:17:29;;;;;;;11.70;2.40;;;23.00;55.00;;;;;;220996;1268;22531;-52
2022/01/05 08:22:33;;;;;;;8.50;2.60;;;22.90;54.60;;;;;;220544;1265;22553;-55
2022/01/05 08:27:47;;;;;;;4.30;2.80;;;22.90;54.50;;;;;;220860;1265;25513;-53
2022/01/05 08:33:17;;;;;;;;;;;;;;;;;;;;;
2022/01/05 08:39:08;;;;;;;5.90;2.70;;;22.80;54.30;;;;;;219649;1268;25356;-57
2022/01/05 08:44:41;;;;;;;7.90;2.20;;;22.80;54.30;;;;;;219848;1268;22601;-58
2022/01/05 08:50:02;;;;;;;8.70;2.90;;;22.80;54.10;;;;;;220416;1267;22550;-56
2022/01/05 08:55:24;;;;;;;6.20;2.80;;;22.80;54.10;;;;;;220162;1265;22579;-54
2022/01/05 09:00:42;;;;;;;5.60;2.60;;;22.60;54.00;;;;;;220031;1265;24227;-56
2022/01/05 09:05:51;;;;;;;3.50;2.30;;;22.60;53.90;;;;;;220263;1265;22544;-56
2022/01/05 09:10:58;;;;;;;4.70;2.50;;;22.60;53.90;;;;;;220082;1265;24408;-56
2022/01/05 09:16:04;;;;;;;5.40;2.70;;;22.60;53.80;;;;;;220371;1265;25421;-54
2022/01/05 09:21:08;;;;;;;6.30;3.00;;;22.50;53.90;;;;;;219997;1269;22615;-56
2022/01/05 09:26:16;;;;;;;6.50;2.70;;;22.80;53.00;;;;;;220069;1265;22555;-56
2022/01/05 09:31:19;;;;;;;5.40;2.80;;;23.10;52.00;;;;;;220377;1265;24422;-56
2022/01/05 09:36:33;;;;;;;5.90;2.60;;;23.30;51.40;;;;;;220480;1265;23036;-58
2022/01/05 09:41:58;;;;;;;5.70;3.10;;;23.40;51.00;;;;;;220395;1265;22616;-56
2022/01/05 09:47:11;;;;;;;5.40;2.50;;;23.50;50.60;;;;;;220450;1265;24824;-54
2022/01/05 09:52:22;;;;;;;5.60;2.80;;;23.60;50.40;;;;;;220226;1265;24374;-54
2022/01/05 09:57:27;;;;;;;5.50;2.70;;;23.60;50.30;;;;;;220069;1268;24384;-54
2022/01/05 10:02:33;;;;;;;5.70;2.60;;;23.60;50.00;;;;;;220098;1267;22532;-56
2022/01/05 10:07:38;;;;;;;4.90;2.50;;;23.60;49.90;;;;;;220041;1268;24434;-53
2022/01/05 10:12:52;;;;;;;12.80;2.60;;;23.60;49.80;;;;;;221338;1265;22602;-57
2022/01/05 10:18:22;;;;;;;5.40;2.80;;;23.70;49.90;;;;;;220373;1266;25452;-57
2022/01/05 10:23:45;;;;;;;13.00;2.30;;;23.70;49.50;;;;;;220495;1265;24265;-54
2022/01/05 10:29:07;;;;;;;6.60;2.50;;;23.70;50.10;;;;;;220385;1265;24389;-55
2022/01/05 10:34:18;;;;;;;3.90;2.10;;;23.70;50.20;;;;;;220361;1265;24329;-55
2022/01/05 10:39:43;;;;;;;;;;;23.70;50.30;;;;;;220038;1265;24127;-55
2022/01/05 10:44:50;;;;;;;4.90;3.00;;;23.70;50.50;;;;;;220933;1265;22597;-56
2022/01/05 10:49:54;;;;;;;3.80;2.20;;;23.70;50.30;;;;;;220629;1265;24303;-54
2022/01/05 10:55:16;;;;;;;3.20;2.00;;;23.80;50.20;;;;;;220440;1265;23242;-55
2022/01/05 11:00:52;;;;;;;7.50;2.00;;;23.80;49.90;;;;;;220449;1265;22616;-57
2022/01/05 11:06:08;;;;;;;3.80;2.10;;;23.80;49.50;;;;;;220661;1265;22643;-55
2022/01/05 11:11:28;;;;;;;3.30;2.00;;;23.90;49.20;;;;;;220516;1265;22557;-58
2022/01/05 11:16:37;;;;;;;3.50;2.00;;;23.80;48.90;;;;;;220404;1268;22690;-55
2022/01/05 11:27:30;;;;;;;3.60;2.10;;;23.90;48.90;;;;;;220430;1265;22560;-55
2022/01/05 11:32:37;;;;;;;3.80;1.90;;;23.90;49.40;;;;;;220756;1265;22577;-54
2022/01/05 11:37:46;;;;;;;3.10;1.80;;;23.90;48.80;;;;;;220551;1265;25376;-55
2022/01/05 11:43:03;;;;;;;4.10;2.10;;;23.90;48.30;;;;;;220781;1267;22620;-56
2022/01/05 11:48:25;;;;;;;3.70;2.10;;;23.90;48.80;;;;;;220171;1265;22754;-55
2022/01/05 11:53:35;;;;;;;3.40;1.90;;;23.90;48.80;;;;;;220361;1265;22564;-57
2022/01/05 11:59:11;;;;;;;3.50;1.80;;;23.90;48.70;;;;;;220485;1265;25224;-55
2022/01/05 12:04:20;;;;;;;3.40;1.90;;;23.90;48.70;;;;;;219971;1267;24547;-52
2022/01/05 12:09:31;;;;;;;3.10;1.70;;;23.90;48.80;;;;;;220119;1265;22588;-56
2022/01/05 12:14:40;;;;;;;4.20;1.70;;;23.90;48.70;;;;;;220428;1265;22572;-56
2022/01/05 12:19:53;;;;;;;2.70;1.70;;;23.90;48.60;;;;;;220515;1265;25757;-52
2022/01/05 12:25:10;;;;;;;3.40;1.70;;;23.90;48.80;;;;;;221144;1264;24205;-51
2022/01/05 12:30:16;;;;;;;2.70;1.50;;;23.90;48.40;;;;;;220120;1265;22903;-56
2022/01/05 12:35:23;;;;;;;2.80;1.50;;;23.90;48.40;;;;;;220290;1268;23977;-55
2022/01/05 12:40:42;;;;;;;2.70;1.30;;;23.90;48.30;;;;;;220092;1267;22667;-53
2022/01/05 12:46:05;;;;;;;3.90;1.70;;;23.90;48.30;;;;;;220501;1265;24054;-55
2022/01/05 12:51:15;;;;;;;2.60;1.50;;;23.90;48.10;;;;;;220228;1265;22581;-54
2022/01/05 12:56:21;;;;;;;3.10;1.70;;;23.90;48.00;;;;;;220401;1265;25337;-57
2022/01/05 13:01:28;;;;;;;2.50;1.50;;;24.00;47.90;;;;;;220401;1265;22734;-55
2022/01/05 13:06:36;;;;;;;5.10;1.80;;;23.90;48.20;;;;;;220281;1264;25515;-54
2022/01/05 13:11:50;;;;;;;3.10;1.80;;;23.80;50.10;;;;;;220842;1265;22566;-54
2022/01/05 13:16:59;;;;;;;3.20;1.50;;;23.80;50.30;;;;;;220199;1265;22523;-56
2022/01/05 13:22:45;;;;;;;5.60;1.50;;;23.80;50.60;;;;;;220287;1265;22646;-53
2022/01/05 13:27:55;;;;;;;3.30;1.80;;;23.90;51.40;;;;;;219987;1265;22618;-55
2022/01/05 13:33:00;;;;;;;3.90;1.40;;;23.80;51.60;;;;;;221148;1265;24322;-55
2022/01/05 13:38:19;;;;;;;2.90;1.70;;;23.80;51.90;;;;;;220099;1265;22540;-55
2022/01/05 13:43:29;;;;;;;4.80;1.80;;;23.80;51.90;;;;;;220314;1265;22653;-54
2022/01/05 13:48:37;;;;;;;3.70;1.50;;;23.80;52.00;;;;;;220481;1265;23014;-55
2022/01/05 13:53:44;;;;;;;2.70;1.40;;;23.80;52.10;;;;;;220278;1265;22601;-53
2022/01/05 13:58:57;;;;;;;;;;;23.90;52.20;;;;;;220091;1267;22534;-52
2022/01/05 14:04:12;;;;;;;2.80;1.40;;;23.80;52.40;;;;;;220374;1265;25668;-53
2022/01/05 14:09:33;;;;;;;3.10;1.60;;;23.90;52.40;;;;;;220344;1267;22563;-54
2022/01/05 14:15:05;;;;;;;3.60;1.70;;;23.80;52.40;;;;;;220666;1265;23575;-55
2022/01/05 14:20:21;;;;;;;2.60;1.40;;;23.80;52.80;;;;;;220564;1265;22691;-56
2022/01/05 14:25:35;;;;;;;4.30;1.40;;;23.80;52.40;;;;;;220474;1265;22576;-54
2022/01/05 14:30:57;;;;;;;3.90;1.60;;;23.80;52.50;;;;;;220107;1265;22558;-48
2022/01/05 14:36:35;;;;;;;3.50;1.50;;;23.80;52.20;;;;;;220274;1265;22608;-49
2022/01/05 14:41:46;;;;;;;3.40;1.70;;;23.80;52.20;;;;;;219990;1265;25513;-53
2022/01/05 14:46:59;;;;;;;3.20;1.40;;;23.90;52.10;;;;;;220261;1265;25515;-54
2022/01/05 14:52:09;;;;;;;3.00;1.60;;;24.00;52.50;;;;;;220299;1265;24587;-56
2022/01/05 14:57:25;;;;;;;6.60;1.60;;;24.10;52.60;;;;;;220428;1265;23153;-58
2022/01/05 15:02:35;;;;;;;2.40;1.30;;;24.00;52.00;;;;;;220296;1264;24325;-51
2022/01/05 15:07:42;;;;;;;2.90;1.60;;;24.00;52.20;;;;;;220499;1266;24755;-52
2022/01/05 15:12:46;;;;;;;3.60;1.70;;;24.00;52.00;;;;;;220137;1265;22546;-55
2022/01/05 15:17:50;;;;;;;2.90;1.60;;;24.00;52.00;;;;;;220606;1265;25483;-52
2022/01/05 15:23:00;;;;;;;2.90;1.40;;;24.00;51.80;;;;;;220312;1265;22548;-55
2022/01/05 15:28:04;;;;;;;5.40;1.60;;;23.90;51.70;;;;;;220349;1265;25974;-52
2022/01/05 15:33:11;;;;;;;2.80;1.70;;;23.90;51.80;;;;;;220105;1264;22564;-53
2022/01/05 15:38:27;;;;;;;3.50;1.60;;;23.90;51.10;;;;;;220501;1265;22635;-56
2022/01/05 15:43:32;;;;;;;3.00;1.50;;;23.90;51.30;;;;;;220481;1264;22621;-54
2022/01/05 15:48:38;;;;;;;2.80;1.50;;;23.90;51.30;;;;;;220275;1265;24182;-56
2022/01/05 15:53:47;;;;;;;4.50;2.00;;;23.80;51.00;;;;;;220376;1264;25963;-56
2022/01/05 16:04:15;;;;;;;5.20;2.00;;;23.90;50.60;;;;;;220431;1265;22649;-53
2022/01/05 16:09:20;;;;;;;3.60;1.80;;;23.90;51.10;;;;;;220169;1265;25300;-59
2022/01/05 16:14:28;;;;;;;3.80;1.80;;;24.00;51.50;;;;;;220062;1265;22627;-60
2022/01/05 16:19:33;;;;;;;5.20;1.90;;;24.00;52.60;;;;;;220253;1265;22544;-60
2022/01/05 16:24:37;;;;;;;4.90;2.00;;;24.20;52.40;;;;;;220642;1265;24263;-53
2022/01/05 16:29:41;;;;;;;5.50;1.70;;;24.30;52.40;;;;;;220275;1265;25485;-50
2022/01/05 16:34:47;;;;;;;8.00;1.90;;;24.50;53.10;;;;;;220144;1266;24309;-54
2022/01/05 16:39:51;;;;;;;3.20;1.90;;;24.50;53.00;;;;;;220100;1265;26668;-56
2022/01/05 16:44:57;;;;;;;3.80;2.10;;;24.40;52.70;;;;;;220679;1265;24278;-56
2022/01/05 16:50:05;;;;;;;9.50;2.40;;;24.30;53.10;;;;;;220102;1265;24238;-60
2022/01/05 16:55:15;;;;;;;7.10;2.70;;;24.20;54.00;;;;;;220267;1265;23142;-57
2022/01/05 17:00:25;;;;;;;11.00;2.70;;;24.10;55.30;;;;;;220085;1265;26271;-56
2022/01/05 17:05:33;;;;;;;12.30;2.90;;;24.00;55.70;;;;;;220082;1265;22560;-57
2022/01/05 17:10:37;;;;;;;6.80;2.70;;;23.90;56.30;;;;;;220328;1265;25323;-55
2022/01/05 17:15:53;;;;;;;8.30;2.60;;;23.90;56.10;;;;;;220201;1267;24624;-54
2022/01/05 17:20:59;;;;;;;7.40;2.60;;;23.80;56.20;;;;;;220417;1265;22566;-54
2022/01/05 17:26:04;;;;;;;7.00;2.60;;;23.70;55.80;;;;;;220251;1267;25469;-55
2022/01/05 17:31:16;;;;;;;7.10;2.90;;;23.60;55.20;;;;;;219981;1265;22759;-56
2022/01/05 17:36:25;;;;;;;5.30;2.50;;;23.60;55.70;;;;;;220062;1265;24421;-57
2022/01/05 17:41:40;;;;;;;8.70;2.70;;;23.50;54.90;;;;;;220271;1265;22678;-59
2022/01/05 17:47:05;;;;;;;7.00;2.60;;;23.30;55.10;;;;;;220040;1265;25801;-52
2022/01/05 17:52:10;;;;;;;6.20;2.40;;;23.20;54.70;;;;;;219756;1267;25330;-50
2022/01/05 17:57:20;;;;;;;10.50;2.70;;;23.00;54.70;;;;;;219679;1267;188203;-50
2022/01/05 18:02:26;;;;;;;12.70;2.90;;;23.00;54.50;;;;;;220346;1265;22593;-49
2022/01/05 18:07:34;;;;;;;11.90;3.10;;;23.00;54.50;;;;;;219886;1265;22603;-50
2022/01/05 18:12:42;;;;;;;9.20;2.90;;;22.90;53.20;;;;;;220305;1265;25466;-54
2022/01/05 18:17:48;;;;;;;9.70;3.30;;;22.80;53.20;;;;;;220202;1265;22658;-55
2022/01/05 18:22:52;;;;;;;7.10;2.90;;;22.80;53.60;;;;;;220367;1265;22590;-55
2022/01/05 18:27:56;;;;;;;7.40;2.60;;;22.80;53.30;;;;;;219783;1267;23818;-51
2022/01/05 18:33:01;;;;;;;5.90;2.80;;;22.70;53.30;;;;;;220316;1265;25726;-52
2022/01/05 18:38:08;;;;;;;8.80;2.70;;;22.70;53.30;;;;;;219700;1267;22653;-52
2022/01/05 18:43:39;;;;;;;8.20;2.60;;;22.60;53.50;;;;;;220481;1265;24278;-57
2022/01/05 18:48:48;;;;;;;9.60;2.70;;;22.60;52.90;;;;;;220392;1265;25383;-53
2022/01/05 18:54:05;;;;;;;6.40;2.20;;;22.60;53.10;;;;;;220407;1265;25708;-56
2022/01/05 18:59:10;;;;;;;7.10;2.70;;;22.50;52.90;;;;;;220057;1265;22535;-51
2022/01/05 19:04:15;;;;;;;5.90;3.00;;;22.50;53.30;;;;;;223289;1265;22766;-55
2022/01/05 19:09:20;;;;;;;4.90;2.80;;;22.40;52.70;;;;;;220571;1265;22706;-53
2022/01/05 19:14:25;;;;;;;6.40;2.70;;;22.40;52.80;;;;;;219891;1265;27122;-54
2022/01/05 19:19:34;;;;;;;6.50;2.60;;;22.80;52.50;;;;;;220635;1264;22528;-53
2022/01/05 19:24:40;;;;;;;5.50;2.50;;;23.20;51.60;;;;;;220528;1265;22530;-53
2022/01/05 19:29:45;;;;;;;8.50;2.90;;;23.30;51.20;;;;;;220532;1265;22554;-51
2022/01/05 19:35:15;;;;;;;6.50;2.40;;;23.50;51.10;;;;;;220027;1265;22542;-55
2022/01/05 19:40:21;;;;;;;5.40;2.80;;;23.60;51.00;;;;;;220219;1265;22668;-54
2022/01/05 19:46:10;;;;;;;6.70;2.70;;;23.70;51.10;;;;;;219973;1265;26649;-54
2022/01/05 19:51:46;;;;;;;6.90;2.70;;;23.80;50.70;;;;;;220280;1265;22550;-55
2022/01/05 19:57:03;;;;;;;5.50;2.50;;;23.80;50.20;;;;;;219233;1265;27185;-58
2022/01/05 20:02:29;;;;;;;4.30;2.00;;;23.80;49.80;;;;;;222460;1264;22711;-52
2022/01/05 20:07:35;;;;;;;5.10;2.50;;;23.90;49.60;;;;;;218980;1265;24028;-57
2022/01/05 20:12:50;;;;;;;6.60;2.70;;;23.90;49.40;;;;;;219683;1265;25456;-54
2022/01/05 20:17:58;;;;;;;5.40;2.50;;;24.00;49.40;;;;;;220679;1265;23037;-57
2022/01/05 20:23:04;;;;;;;11.50;3.30;;;24.00;49.40;;;;;;220277;1267;24245;-57
2022/01/05 20:28:13;;;;;;;5.60;2.90;;;24.10;50.70;;;;;;220431;1265;25575;-58
2022/01/05 20:33:22;;;;;;;5.90;2.30;;;24.10;50.60;;;;;;220185;1265;22553;-59
2022/01/05 20:39:01;;;;;;;9.50;2.70;;;24.10;50.30;;;;;;221328;1268;22554;-56
2022/01/05 20:44:50;;;;;;;9.80;2.70;;;24.10;51.10;;;;;;220171;1270;22638;-59
2022/01/05 20:50:08;;;;;;;8.50;2.50;;;24.10;50.90;;;;;;220349;1267;22692;-56
2022/01/05 20:56:04;;;;;;;8.70;2.70;;;24.20;50.90;;;;;;219963;1267;22536;-57
2022/01/05 21:01:20;;;;;;;10.90;2.60;;;24.10;50.40;;;;;;220140;1267;22548;-60
2022/01/05 21:07:00;;;;;;;6.90;2.50;;;24.00;50.30;;;;;;220469;1265;25490;-60
2022/01/05 21:12:08;;;;;;;6.40;2.50;;;23.90;50.80;;;;;;221713;1265;25334;-55
2022/01/05 21:17:50;;;;;;;6.30;2.50;;;23.80;50.40;;;;;;220562;1267;22563;-58
2022/01/05 21:23:01;;;;;;;11.50;2.70;;;23.80;50.00;;;;;;220452;1265;24239;-57
2022/01/05 21:28:31;;;;;;;8.00;2.40;;;23.60;50.00;;;;;;221010;1267;22698;-61
2022/01/05 21:33:48;;;;;;;5.80;2.30;;;23.60;50.40;;;;;;220351;1267;26677;-60
2022/01/05 21:39:06;;;;;;;13.90;2.80;;;23.40;50.50;;;;;;220792;1265;25422;-61
2022/01/05 21:44:49;;;;;;;7.40;2.60;;;23.30;50.90;;;;;;220966;1265;25791;-61
2022/01/05 21:50:18;;;;;;;5.60;2.50;;;23.20;49.60;;;;;;221133;1265;22548;-61
2022/01/05 21:55:45;;;;;;;5.80;2.20;;;23.10;50.00;;;;;;220691;1266;22629;-60
2022/01/05 22:01:04;;;;;;;6.30;2.60;;;23.10;50.00;;;;;;220630;1265;24170;-61
2022/01/05 22:06:10;;;;;;;4.20;2.10;;;23.10;50.10;;;;;;220939;1265;22698;-61
2022/01/05 22:11:14;;;;;;;8.60;2.90;;;22.90;50.40;;;;;;220567;1265;24284;-60
2022/01/05 22:16:26;;;;;;;4.40;2.30;;;22.90;51.10;;;;;;220552;1265;24322;-60
2022/01/05 22:21:34;;;;;;;6.70;2.10;;;22.90;50.90;;;;;;220429;1267;24239;-60
2022/01/05 22:26:45;;;;;;;5.70;2.10;;;22.80;51.10;;;;;;220111;1267;23758;-60
2022/01/05 22:32:13;;;;;;;4.80;2.20;;;22.70;51.20;;;;;;220697;1268;24762;-59
2022/01/05 22:37:22;;;;;;;8.20;2.80;;;22.70;51.50;;;;;;220396;1267;25587;-61
2022/01/05 22:42:31;;;;;;;4.30;2.00;;;22.60;51.70;;;;;;220446;1268;24317;-60
2022/01/05 22:47:35;;;;;;;5.60;2.40;;;22.60;51.90;;;;;;220292;1267;24261;-61
2022/01/05 22:52:44;;;;;;;5.00;2.10;;;22.50;52.00;;;;;;220161;1268;22553;-60
2022/01/05 22:57:58;;;;;;;6.80;2.10;;;22.60;52.10;;;;;;220318;1267;25461;-60
2022/01/05 23:03:05;;;;;;;4.80;2.10;;;23.00;51.60;;;;;;220357;1268;22584;-61
2022/01/05 23:08:19;;;;;;;5.30;2.00;;;23.30;50.60;;;;;;220315;1267;24387;-60
2022/01/05 23:13:34;;;;;;;5.50;2.00;;;23.50;50.80;;;;;;220313;1265;25179;-60
2022/01/05 23:18:40;;;;;;;5.40;2.10;;;23.70;51.20;;;;;;220124;1267;22611;-62
2022/01/05 23:23:45;;;;;;;4.10;2.10;;;23.60;50.00;;;;;;220952;1265;25659;-61
2022/01/05 23:28:53;;;;;;;4.30;2.00;;;23.70;50.00;;;;;;220257;1267;22533;-62
2022/01/05 23:34:05;;;;;;;5.30;2.60;;;23.70;50.00;;;;;;220893;1265;22597;-60
2022/01/05 23:39:09;;;;;;;5.30;2.00;;;23.70;51.20;;;;;;220567;1265;22618;-60
2022/01/05 23:44:16;;;;;;;5.20;2.30;;;23.80;51.10;;;;;;220076;1267;22604;-62
2022/01/05 23:49:28;;;;;;;6.30;2.30;;;23.80;51.10;;;;;;220343;1267;22540;-61
2022/01/05 23:54:34;;;;;;;;;;;23.80;51.10;;;;;;220420;1265;22530;-61
2022/01/05 23:59:39;;;;;;;4.20;2.10;;;23.80;50.90;;;;;;220247;1268;22630;-61
